Jackson, MS

8:22 AM CST on February 27, 2015 (GMT -0600)
Brookhaven | Change Station
CLOSE
Current Station
Airport
Location: Brookhaven,
Elevation: 489 ft
Nearby Weather Stations
Active Advisory: Flood Warning Active Notice: Local Storm Report

Elev 489 ft 31.61 °N, 90.41 °W | Updated 7 minutes ago

Overcast
Overcast
32 °F
Feels Like 26 °F
N
6
Wind Variable Wind from NNE

Today
High -- | Low -- °F
--% Chance of Precip.
Yesterday
High -- | Low -- °F
Precip. -- in
6:30 AM 5:56 PM
Waxing Gibbous, 69% visible
Pressure 30.44 in
Visibility -9999.0 miles
Clouds Overcast 1400 ft
Windchill 26 °F
Dew Point 30 °F
Humidity 93%
Rainfall 0.00 in
Snow Depth Not available.
UV 0 out of 12
Pollen 6.50 out of 12
Air Quality Not available.
Flu Activity Not available.
METAR K1R7 271415Z AUTO 02005KT OVC014 00/M01 A3044 RMK AO2

More Conditions Fewer Conditions

Pressure 30.44 in
Visibility -9999.0 miles
Clouds Overcast 1400 ft
Windchill 26 °F
Dew Point 30 °F
Humidity 93%
Rainfall 0.00 in
Snow Depth Not available.
UV 0 out of 12
Pollen 6.50 out of 12
Air Quality Not available.
Flu Activity Not available.
METAR K1R7 271415Z AUTO 02005KT OVC014 00/M01 A3044 RMK AO2

More Conditions Fewer Conditions

10-Day Weather Forecast

Almanac

Astronomy

Feb. 27, 2015 Rise Set
Actual Time
Civil Twilight
Nautical Twilight
Astronomical Twilight
Moon
Length of Visible Light
Length of Day
Tomorrow will be .
, % of the Moon is Illuminated

Today's Extremes

State Highs State Lows

Community

WunderPhotos

Upload Photos

1,800,683 photos uploaded!

WunderBlogs® & News

Nearby

Air Quality

  Air Quality AQ Index Pollutant
Not available.

Snow Depth

Station Depth Elevation

Earthquake Activity

City Distance Mag. Time & Date
Minimum magnitude displayed is 2.5.

Coastal Water Temperatures

Place Temperature

Nearby Weather Stations

Flood Warning
Statement as of 7:50 PM CST on February 26, 2015


The Flood Warning continues for
the Big Black River near Bovina
* until further notice.
* At 7:15 PM Thursday the stage was 27.9 feet.
* Minor flooding is forecast.
* Flood stage is 28.0 feet.
* Forecast... the river will rise above flood stage by tonight and
will continue to rise to near 30.0 feet by early Sunday morning.
* Impact... at 28.0 feet... low-lying agricultural land near the river
begins to flood.


              Flood observed forecast 7 am crest
location stg stg day time Fri Sat sun crest time date

Lower Big Black River
Bovina 28 27.9 Thu 07 PM 28.2 28.5 28.9 30.0 12 am 03/08




Lat... Lon 3217 9093 3224 9078 3256 9064 3245 9052
      3218 9065 3204 9102